Portada
METAR-TAF:

METAR-TAF

Aeroports :

Plataforma petroliera

Hoorn-a, Països Baixos

latitud: 52-55-05N, longitud: 4-09-01E, altitud: 41 m

Observació

L'informe es va fer fa 41 minuts, a les 21:55 UTC
Vent 36 kt del Oest/Sud-Oest
Temperatura 11°C
Humitat 82%
Pressió 999 hPa
Visibilitat 10 km o més
Escasses núvols a una alçada de 900 ft
Núvols disperses a una alçada de 1200 ft
Cel ennuvolat a una alçada de 1500 ft

METAR: EHQE 062155Z AUTO 25036KT 9999 FEW009 SCT012 BKN015 11/08 Q0999 W///H///

Hora: 23:36 (22:36 UTC)


TAF: manca

Observacions i pronòstics meteorològics de més de 4000 aeroports (METAR i TAF).

Les estacions disponibles són els punts grocs i vermells al mapa.

Posi el ratolí al punt desitjat per veure el nom de l'estació.

Feu clic per veure les observacions i els pronòstics meteorològics.

Per canviar el mapa: feu clic els botons verds amb una creu de color negre per apropar; al botó verd amb un guió per allunyar la imatge; o en les fletxes verdes per a mapes adjacents.


METAR-TAF: